Time;durP1;ratioP1;P1;durP2;ratioP2;P2;SDS_P1;SDS_P2;PMS_P1;PMS_P2;Temp;Humidity;BMP_temperature;BMP_pressure;BME280_temperature;BME280_humidity;BME280_pressure;Samples;Min_cycle;Max_cycle;Signal;HPM_P1;HPM_P2
2020/12/22 00:00:52;;;;;;;13.25;8.40;;;7.90;99.90;;;;;;5026421;28;20375;-52
2020/12/22 00:03:17;;;;;;;11.07;8.18;;;7.70;99.90;;;;;;5025955;28;20033;-50
2020/12/22 00:05:45;;;;;;;12.63;8.50;;;7.70;99.90;;;;;;5026803;28;20032;-50
2020/12/22 00:08:13;;;;;;;11.45;8.55;;;7.70;99.90;;;;;;5007853;28;565784;-50
2020/12/22 00:10:39;;;;;;;12.50;8.63;;;7.60;99.90;;;;;;5028317;28;20502;-52
2020/12/22 00:13:04;;;;;;;17.88;10.55;;;7.60;99.90;;;;;;5028463;28;20093;-51
2020/12/22 00:15:30;;;;;;;15.88;9.95;;;7.60;99.90;;;;;;5027662;28;20022;-50
2020/12/22 00:17:55;;;;;;;20.35;11.50;;;7.60;99.90;;;;;;5028505;28;20366;-53
2020/12/22 00:20:21;;;;;;;15.90;10.07;;;7.40;99.90;;;;;;5028102;28;20026;-53
2020/12/22 00:22:49;;;;;;;15.25;9.90;;;7.50;99.90;;;;;;5028118;28;20018;-53
2020/12/22 00:25:15;;;;;;;20.40;11.93;;;7.50;99.90;;;;;;5027467;28;20105;-53
2020/12/22 00:27:40;;;;;;;18.60;11.45;;;7.40;99.90;;;;;;5028151;28;20116;-54
2020/12/22 00:30:06;;;;;;;16.70;11.30;;;7.40;99.90;;;;;;5028629;28;20068;-54
2020/12/22 00:32:35;;;;;;;20.23;13.68;;;7.40;99.90;;;;;;5028030;28;20031;-53
2020/12/22 00:35:01;;;;;;;23.08;13.80;;;7.40;99.90;;;;;;5027444;28;20291;-54
2020/12/22 00:37:26;;;;;;;24.48;12.95;;;7.30;99.90;;;;;;5028107;28;20036;-55
2020/12/22 00:39:51;;;;;;;25.83;14.18;;;7.30;99.90;;;;;;5026989;28;20029;-53
2020/12/22 00:42:17;;;;;;;24.30;14.45;;;7.20;99.90;;;;;;5028325;28;20463;-53
2020/12/22 00:44:43;;;;;;;22.05;13.85;;;7.20;99.90;;;;;;5027790;28;20229;-55
2020/12/22 00:47:08;;;;;;;24.02;14.18;;;7.20;99.90;;;;;;5027732;28;20034;-56
2020/12/22 00:49:34;;;;;;;23.10;13.88;;;7.20;99.90;;;;;;5027997;28;20532;-56
2020/12/22 00:51:59;;;;;;;25.92;13.63;;;7.20;99.90;;;;;;5026675;28;20029;-54
2020/12/22 00:54:28;;;;;;;26.40;14.73;;;7.20;99.90;;;;;;5027523;28;20033;-53
2020/12/22 00:56:54;;;;;;;22.85;14.15;;;7.20;99.90;;;;;;5029294;28;20507;-55
2020/12/22 00:59:19;;;;;;;28.10;15.27;;;7.20;99.90;;;;;;5031459;28;20033;-53
2020/12/22 01:01:44;;;;;;;26.63;14.05;;;7.30;99.90;;;;;;5031521;28;20510;-55
2020/12/22 01:04:10;;;;;;;24.55;13.95;;;7.30;99.90;;;;;;5031524;28;20017;-54
2020/12/22 01:06:37;;;;;;;26.10;14.02;;;7.30;99.90;;;;;;5030828;28;20026;-54
2020/12/22 01:09:04;;;;;;;23.33;13.45;;;7.30;99.90;;;;;;5031120;28;20483;-54
2020/12/22 01:11:37;;;;;;;26.85;14.10;;;7.30;99.90;;;;;;5031393;28;20033;-53
2020/12/22 01:14:03;;;;;;;27.58;14.20;;;7.30;99.90;;;;;;5031525;28;20170;-54
2020/12/22 01:16:29;;;;;;;25.52;13.93;;;7.30;99.90;;;;;;5030540;28;20029;-53
2020/12/22 01:18:54;;;;;;;24.30;13.45;;;7.30;99.90;;;;;;5031064;28;20030;-54
2020/12/22 01:21:21;;;;;;;22.40;12.90;;;7.40;99.90;;;;;;5029841;28;20022;-53
2020/12/22 01:23:47;;;;;;;24.75;12.80;;;7.40;99.90;;;;;;5030959;28;20557;-55
2020/12/22 01:26:21;;;;;;;23.55;11.88;;;7.40;99.90;;;;;;5030667;28;20487;-54
2020/12/22 01:28:47;;;;;;;18.00;10.70;;;7.50;99.90;;;;;;5030932;28;20033;-56
2020/12/22 01:31:29;;;;;;;18.73;10.13;;;7.60;99.90;;;;;;5031373;28;20547;-54
2020/12/22 01:33:56;;;;;;;17.25;9.98;;;7.60;99.90;;;;;;5030767;28;20034;-54
2020/12/22 01:36:22;;;;;;;19.10;10.80;;;7.60;99.90;;;;;;5028906;28;20025;-55
2020/12/22 01:38:49;;;;;;;14.77;9.57;;;7.50;99.90;;;;;;5030896;28;20022;-55
2020/12/22 01:41:15;;;;;;;18.05;9.77;;;7.60;99.90;;;;;;5030933;28;20112;-55
2020/12/22 01:43:42;;;;;;;16.17;9.63;;;7.60;99.90;;;;;;5030755;28;20379;-55
2020/12/22 01:46:07;;;;;;;16.60;8.20;;;7.60;99.90;;;;;;5030279;28;20510;-56
2020/12/22 01:48:34;;;;;;;14.80;8.18;;;7.60;99.90;;;;;;5030812;28;20035;-56
2020/12/22 01:51:00;;;;;;;14.23;8.50;;;7.60;99.90;;;;;;5031194;28;20021;-55
2020/12/22 01:53:25;;;;;;;15.70;7.35;;;7.60;99.90;;;;;;5030636;28;20032;-54
2020/12/22 01:55:52;;;;;;;15.02;7.88;;;7.60;99.90;;;;;;5030643;28;20374;-54
2020/12/22 01:58:17;;;;;;;16.10;8.60;;;7.70;99.90;;;;;;5030565;28;20024;-53
2020/12/22 02:00:43;;;;;;;13.13;8.05;;;7.70;99.90;;;;;;5029251;28;20025;-52
2020/12/22 02:03:09;;;;;;;12.85;7.93;;;7.70;99.90;;;;;;5030248;28;20554;-52
2020/12/22 02:05:38;;;;;;;12.65;7.28;;;7.80;99.90;;;;;;5029934;28;20369;-53
2020/12/22 02:08:07;;;;;;;12.35;6.70;;;7.70;99.90;;;;;;5029122;28;20080;-53
2020/12/22 02:10:33;;;;;;;18.85;6.85;;;7.80;99.90;;;;;;5030241;28;20017;-53
2020/12/22 02:12:59;;;;;;;13.85;6.50;;;7.80;99.90;;;;;;5030330;28;20357;-52
2020/12/22 02:15:25;;;;;;;8.60;5.50;;;7.90;99.90;;;;;;5029609;28;20067;-50
2020/12/22 02:17:51;;;;;;;11.85;5.25;;;7.90;99.90;;;;;;5029613;28;20029;-53
2020/12/22 02:20:17;;;;;;;11.02;5.03;;;7.90;99.90;;;;;;5030373;28;20386;-53
2020/12/22 02:22:42;;;;;;;6.13;4.20;;;8.00;99.90;;;;;;5030098;28;20022;-54
2020/12/22 02:25:15;;;;;;;7.63;4.32;;;8.00;99.90;;;;;;5029487;28;20092;-53
2020/12/22 02:27:41;;;;;;;6.88;4.05;;;8.00;99.90;;;;;;5029984;28;20594;-53
2020/12/22 02:30:07;;;;;;;6.53;3.78;;;8.00;99.90;;;;;;5029989;28;20181;-53
2020/12/22 02:32:33;;;;;;;4.50;3.25;;;8.10;99.90;;;;;;5029553;28;20057;-53
2020/12/22 02:34:59;;;;;;;3.97;3.08;;;8.10;99.90;;;;;;5029507;28;20111;-54
2020/12/22 02:37:24;;;;;;;3.85;2.63;;;8.10;99.90;;;;;;5028395;28;20026;-52
2020/12/22 02:39:50;;;;;;;4.85;2.70;;;8.20;99.90;;;;;;5029517;28;20026;-51
2020/12/22 02:42:15;;;;;;;6.07;2.60;;;8.30;99.90;;;;;;5029767;28;20049;-51
2020/12/22 02:44:41;;;;;;;3.80;2.45;;;8.30;99.90;;;;;;5029142;28;20181;-52
2020/12/22 02:47:11;;;;;;;4.65;2.47;;;8.30;99.90;;;;;;5029206;28;20034;-52
2020/12/22 02:49:37;;;;;;;3.17;2.03;;;8.30;99.90;;;;;;5029576;28;20053;-53
2020/12/22 02:52:03;;;;;;;4.93;1.90;;;8.40;99.90;;;;;;5029422;28;20044;-53
2020/12/22 02:54:28;;;;;;;3.25;1.70;;;8.40;99.90;;;;;;5027488;28;20030;-53
2020/12/22 02:56:54;;;;;;;3.03;1.80;;;8.50;99.90;;;;;;5029163;28;20032;-52
2020/12/22 02:59:19;;;;;;;2.15;1.60;;;8.50;99.90;;;;;;5029514;28;20533;-52
2020/12/22 03:01:45;;;;;;;2.40;1.77;;;8.50;99.90;;;;;;5029440;28;20033;-52
2020/12/22 03:04:12;;;;;;;1.80;1.55;;;8.60;99.90;;;;;;5028969;28;20075;-48
2020/12/22 03:06:38;;;;;;;1.70;1.42;;;8.60;99.90;;;;;;5028493;28;20104;-53
2020/12/22 03:09:04;;;;;;;3.40;1.52;;;8.60;99.90;;;;;;5029019;28;20128;-52
2020/12/22 03:11:29;;;;;;;1.58;1.33;;;8.70;99.90;;;;;;5029479;28;20021;-52
2020/12/22 03:13:55;;;;;;;1.40;1.30;;;8.70;99.90;;;;;;5029475;28;20026;-53
2020/12/22 03:16:20;;;;;;;1.48;1.10;;;8.80;99.90;;;;;;5029129;28;20534;-52
2020/12/22 03:18:46;;;;;;;1.77;1.38;;;8.70;99.90;;;;;;5029027;28;20080;-53
2020/12/22 03:21:12;;;;;;;1.20;1.10;;;8.80;99.90;;;;;;5029022;28;20028;-50
2020/12/22 03:23:38;;;;;;;1.73;1.20;;;8.80;99.90;;;;;;5029160;28;20022;-51
2020/12/22 03:26:03;;;;;;;1.50;1.20;;;8.90;99.90;;;;;;5028929;28;20025;-52
2020/12/22 03:28:29;;;;;;;1.63;1.38;;;8.90;99.90;;;;;;5029320;28;20079;-53
2020/12/22 03:30:54;;;;;;;1.08;1.02;;;8.90;99.90;;;;;;5029182;28;20102;-53
2020/12/22 03:33:20;;;;;;;1.40;1.30;;;9.00;99.90;;;;;;5028920;28;20106;-52
2020/12/22 03:35:45;;;;;;;1.42;1.13;;;9.00;99.90;;;;;;5033504;28;20033;-48
2020/12/22 03:38:11;;;;;;;1.35;1.25;;;9.00;99.90;;;;;;5037612;28;20432;-52
2020/12/22 03:40:36;;;;;;;1.80;1.60;;;9.10;99.90;;;;;;5037584;28;20025;-52
2020/12/22 03:43:02;;;;;;;1.58;1.40;;;9.10;99.90;;;;;;5041751;28;20013;-52
2020/12/22 03:45:28;;;;;;;2.85;1.52;;;9.10;99.90;;;;;;5038257;28;20021;-51
2020/12/22 03:47:53;;;;;;;1.95;1.75;;;9.20;99.90;;;;;;5037629;28;20535;-53
2020/12/22 03:50:19;;;;;;;1.88;1.70;;;9.30;99.90;;;;;;5040545;28;20029;-48
2020/12/22 03:52:44;;;;;;;1.73;1.63;;;9.30;99.90;;;;;;5037488;28;20044;-50
2020/12/22 03:55:10;;;;;;;2.33;1.88;;;9.30;99.90;;;;;;5036871;28;20028;-49
2020/12/22 03:57:35;;;;;;;4.28;2.10;;;9.30;99.90;;;;;;5037062;28;20032;-52
2020/12/22 04:00:02;;;;;;;1.70;1.60;;;9.40;99.90;;;;;;5036281;28;20541;-53
2020/12/22 04:02:27;;;;;;;2.15;1.73;;;9.40;99.90;;;;;;5038044;28;20120;-52
2020/12/22 04:04:53;;;;;;;3.28;2.25;;;9.40;99.90;;;;;;5038531;28;20531;-53
2020/12/22 04:07:20;;;;;;;2.05;1.73;;;9.50;99.90;;;;;;5037130;28;20034;-52
2020/12/22 04:09:46;;;;;;;3.03;1.98;;;9.50;99.90;;;;;;5036922;28;20113;-49
2020/12/22 04:12:11;;;;;;;3.10;1.88;;;9.50;99.90;;;;;;5035840;28;20574;-51
2020/12/22 04:14:37;;;;;;;2.25;1.80;;;9.50;99.90;;;;;;5038683;28;20029;-51
2020/12/22 04:17:02;;;;;;;3.95;1.95;;;9.50;99.90;;;;;;5037763;28;20025;-51
2020/12/22 04:19:28;;;;;;;2.22;1.90;;;9.50;99.90;;;;;;5037605;28;20482;-49
2020/12/22 04:21:54;;;;;;;2.83;2.30;;;9.60;99.90;;;;;;5036428;28;20025;-53
2020/12/22 04:24:19;;;;;;;3.70;1.85;;;9.60;99.90;;;;;;5037469;28;20026;-51
2020/12/22 04:26:45;;;;;;;2.65;1.85;;;9.60;99.90;;;;;;5037579;28;20530;-48
2020/12/22 04:29:10;;;;;;;4.63;3.00;;;9.60;99.90;;;;;;5037160;28;20021;-52
2020/12/22 04:31:36;;;;;;;3.80;2.28;;;9.60;99.90;;;;;;5040063;28;20055;-49
2020/12/22 04:34:01;;;;;;;4.28;2.35;;;9.70;99.90;;;;;;5043856;28;20017;-49
2020/12/22 04:36:27;;;;;;;3.28;2.63;;;9.70;99.90;;;;;;5051405;28;20029;-53
2020/12/22 04:38:53;;;;;;;2.83;2.10;;;9.70;99.90;;;;;;5047036;28;20493;-50
2020/12/22 04:41:20;;;;;;;2.97;2.58;;;9.80;99.90;;;;;;5032360;28;20026;-51
2020/12/22 04:43:47;;;;;;;4.93;2.80;;;9.80;99.90;;;;;;5032063;28;20022;-51
2020/12/22 04:46:21;;;;;;;3.70;2.60;;;9.90;99.90;;;;;;5031319;28;20021;-50
2020/12/22 04:48:53;;;;;;;6.35;3.10;;;10.00;99.90;;;;;;5030267;28;20375;-49
2020/12/22 04:51:19;;;;;;;5.40;2.70;;;10.00;99.90;;;;;;5031791;28;20112;-51
2020/12/22 04:53:45;;;;;;;8.63;2.80;;;10.00;99.90;;;;;;5031894;28;20025;-48
2020/12/22 04:56:11;;;;;;;5.32;3.10;;;10.10;99.90;;;;;;5031312;28;20141;-47
2020/12/22 04:58:37;;;;;;;2.50;2.20;;;10.10;99.90;;;;;;5032018;28;20076;-49
2020/12/22 05:01:03;;;;;;;5.70;2.85;;;10.20;99.90;;;;;;5031749;28;20435;-49
2020/12/22 05:03:28;;;;;;;4.35;2.80;;;10.20;99.90;;;;;;5031038;28;20032;-51
2020/12/22 05:05:54;;;;;;;7.22;2.92;;;10.20;99.90;;;;;;5030810;28;20387;-51
2020/12/22 05:08:20;;;;;;;6.20;2.63;;;10.30;99.90;;;;;;5031451;28;20029;-48
2020/12/22 05:10:47;;;;;;;7.00;2.60;;;10.30;99.90;;;;;;5031517;28;20280;-49
2020/12/22 05:13:13;;;;;;;4.90;2.47;;;10.30;99.90;;;;;;5031581;28;20025;-49
2020/12/22 05:15:43;;;;;;;5.90;3.17;;;10.20;99.90;;;;;;5031208;28;20397;-49
2020/12/22 05:18:09;;;;;;;3.35;2.50;;;10.20;99.90;;;;;;5030892;28;20368;-51
2020/12/22 05:20:39;;;;;;;5.25;2.60;;;10.20;99.90;;;;;;5031511;28;20387;-50
2020/12/22 05:23:21;;;;;;;7.35;3.03;;;10.30;99.90;;;;;;5030118;28;20029;-49
2020/12/22 05:25:48;;;;;;;9.20;2.80;;;10.30;99.90;;;;;;5030693;28;20029;-52
2020/12/22 05:28:16;;;;;;;4.63;2.75;;;10.20;99.90;;;;;;5031204;28;20053;-50
2020/12/22 05:30:43;;;;;;;6.50;3.22;;;10.20;99.90;;;;;;5031166;28;20060;-50
2020/12/22 05:33:10;;;;;;;5.22;3.30;;;10.20;99.90;;;;;;5031042;28;20026;-49
2020/12/22 05:35:40;;;;;;;7.25;3.10;;;10.20;99.90;;;;;;5029970;28;20021;-49
2020/12/22 05:38:06;;;;;;;4.10;2.70;;;10.20;99.90;;;;;;5031040;28;20025;-50
2020/12/22 05:40:33;;;;;;;3.75;3.00;;;10.30;99.90;;;;;;5013283;28;20376;-49
2020/12/22 05:43:00;;;;;;;8.35;3.60;;;10.30;99.90;;;;;;5030543;28;20025;-50
2020/12/22 05:45:30;;;;;;;7.10;3.40;;;10.40;99.90;;;;;;5030180;28;20041;-49
2020/12/22 05:47:56;;;;;;;7.18;3.80;;;10.40;99.90;;;;;;5030674;28;20083;-51
2020/12/22 05:50:23;;;;;;;9.02;3.75;;;10.40;99.90;;;;;;5030757;28;20531;-50
2020/12/22 05:52:52;;;;;;;9.95;4.65;;;10.40;99.90;;;;;;5030590;28;20518;-51
2020/12/22 05:55:32;;;;;;;9.50;4.70;;;10.40;99.90;;;;;;5028633;28;20029;-50
2020/12/22 05:58:14;;;;;;;6.53;4.25;;;10.40;99.90;;;;;;5030543;28;20505;-53
2020/12/22 06:00:44;;;;;;;5.60;3.10;;;10.40;99.90;;;;;;5030387;28;20037;-52
2020/12/22 06:03:13;;;;;;;10.80;3.60;;;10.50;99.90;;;;;;5030200;28;20555;-52
2020/12/22 06:05:44;;;;;;;4.23;3.00;;;10.50;99.90;;;;;;5029663;28;20125;-51
2020/12/22 06:08:11;;;;;;;6.07;2.85;;;10.50;99.90;;;;;;5030056;28;20045;-52
2020/12/22 06:10:38;;;;;;;6.00;3.03;;;10.50;99.90;;;;;;5030351;28;20030;-50
2020/12/22 06:13:06;;;;;;;4.70;2.42;;;10.50;99.90;;;;;;5030357;28;20099;-52
2020/12/22 06:15:32;;;;;;;4.18;2.60;;;10.60;99.90;;;;;;5029971;28;20100;-50
2020/12/22 06:17:58;;;;;;;2.85;2.50;;;10.70;99.90;;;;;;5030046;28;20173;-52
2020/12/22 06:20:26;;;;;;;2.53;2.33;;;10.70;99.90;;;;;;5029968;28;20097;-52
2020/12/22 06:23:06;;;;;;;5.47;2.72;;;10.70;99.90;;;;;;5028438;28;20033;-53
2020/12/22 06:25:33;;;;;;;3.40;2.10;;;10.70;99.90;;;;;;5028122;28;20467;-49
2020/12/22 06:27:58;;;;;;;2.38;1.65;;;10.70;99.90;;;;;;5029768;28;20479;-50
2020/12/22 06:30:40;;;;;;;2.45;1.92;;;10.80;99.90;;;;;;5029940;28;20100;-48
2020/12/22 06:33:26;;;;;;;2.95;2.22;;;10.80;99.90;;;;;;5028163;28;20083;-52
2020/12/22 06:36:04;;;;;;;2.97;1.90;;;10.80;99.90;;;;;;5029375;28;20108;-52
2020/12/22 06:38:46;;;;;;;1.90;1.50;;;10.80;99.90;;;;;;5029984;28;20556;-53
2020/12/22 06:41:25;;;;;;;2.67;2.42;;;10.90;99.90;;;;;;5029889;28;20021;-52
2020/12/22 06:43:55;;;;;;;2.80;1.98;;;10.90;99.90;;;;;;5029771;28;20493;-49
2020/12/22 06:46:33;;;;;;;2.55;2.20;;;10.90;99.90;;;;;;5029576;28;20585;-49
2020/12/22 06:49:05;;;;;;;3.08;1.95;;;10.90;99.90;;;;;;5029715;28;20152;-47
2020/12/22 06:51:38;;;;;;;2.40;1.73;;;10.90;99.90;;;;;;5028257;28;20076;-48
2020/12/22 06:54:05;;;;;;;2.75;1.77;;;10.90;99.90;;;;;;5027541;28;20034;-47
2020/12/22 06:56:52;;;;;;;2.00;1.80;;;11.00;99.90;;;;;;5036699;28;20017;-46
2020/12/22 06:59:41;;;;;;;4.10;1.30;;;11.00;99.90;;;;;;5041073;28;20471;-49
2020/12/22 07:02:33;;;;;;;2.08;1.70;;;11.10;99.90;;;;;;5037635;28;20100;-45
2020/12/22 07:05:02;;;;;;;6.80;1.77;;;11.10;99.90;;;;;;5036202;28;20017;-48
2020/12/22 07:07:55;;;;;;;1.60;1.50;;;11.10;99.90;;;;;;5038691;28;20029;-49
2020/12/22 07:10:25;;;;;;;1.77;1.67;;;11.10;99.90;;;;;;5028495;28;20132;-49
2020/12/22 07:13:00;;;;;;;1.70;1.60;;;11.10;99.90;;;;;;5030804;28;20598;-49
2020/12/22 07:15:38;;;;;;;1.67;1.58;;;11.10;99.90;;;;;;5030142;28;20033;-45
2020/12/22 07:18:09;;;;;;;1.92;1.73;;;11.00;99.90;;;;;;5030313;28;20026;-45
2020/12/22 07:20:37;;;;;;;3.78;2.00;;;11.10;99.90;;;;;;5036772;28;20025;-47
2020/12/22 07:23:03;;;;;;;1.92;1.70;;;11.10;99.90;;;;;;5050431;28;20017;-49
2020/12/22 07:25:29;;;;;;;2.03;1.83;;;11.10;99.90;;;;;;5049635;28;20025;-47
2020/12/22 07:27:55;;;;;;;2.60;2.05;;;11.00;99.90;;;;;;5049199;28;20124;-46
2020/12/22 07:30:20;;;;;;;2.28;2.08;;;11.10;99.90;;;;;;5049713;28;20543;-47
2020/12/22 07:32:46;;;;;;;2.22;2.00;;;11.10;99.90;;;;;;5049325;28;20028;-47
2020/12/22 07:35:12;;;;;;;2.03;1.83;;;11.10;99.90;;;;;;5035173;28;20040;-45
2020/12/22 07:37:38;;;;;;;3.05;2.03;;;11.10;99.90;;;;;;5030264;28;20105;-46
2020/12/22 07:40:10;;;;;;;2.25;1.90;;;11.20;99.90;;;;;;5030175;28;20104;-49
2020/12/22 07:42:35;;;;;;;2.30;2.10;;;11.20;99.90;;;;;;5029086;28;20017;-49
2020/12/22 07:45:07;;;;;;;3.05;2.17;;;11.20;99.90;;;;;;5029756;28;20067;-51
2020/12/22 07:47:33;;;;;;;1.80;1.70;;;11.30;99.90;;;;;;5030057;28;20033;-53
2020/12/22 07:50:13;;;;;;;2.90;1.92;;;11.30;99.90;;;;;;5029949;28;20399;-52
2020/12/22 07:52:39;;;;;;;2.80;2.33;;;11.30;99.90;;;;;;5030231;28;20032;-46
2020/12/22 07:55:04;;;;;;;3.00;2.20;;;11.30;99.90;;;;;;5029550;28;20030;-46
2020/12/22 07:57:30;;;;;;;3.40;2.47;;;11.40;99.90;;;;;;5029841;28;20033;-46
2020/12/22 08:00:08;;;;;;;4.22;2.80;;;11.40;99.90;;;;;;5031867;28;20017;-53
2020/12/22 08:02:34;;;;;;;3.42;2.90;;;11.40;99.90;;;;;;5030336;28;20096;-53
2020/12/22 08:05:10;;;;;;;3.70;2.95;;;11.50;99.90;;;;;;5029423;28;20029;-49
2020/12/22 08:07:36;;;;;;;5.70;3.78;;;11.60;99.90;;;;;;5034087;28;20090;-46
2020/12/22 08:10:27;;;;;;;5.72;4.00;;;11.60;99.90;;;;;;5034109;28;20029;-45
2020/12/22 08:12:54;;;;;;;6.85;4.95;;;11.70;99.90;;;;;;5034127;28;20620;-52
2020/12/22 08:15:20;;;;;;;6.93;5.25;;;11.80;99.90;;;;;;5033519;28;20037;-49
2020/12/22 08:17:49;;;;;;;7.90;5.72;;;11.80;99.90;;;;;;5033949;28;20484;-48
2020/12/22 08:20:15;;;;;;;7.47;4.40;;;11.80;99.90;;;;;;5033885;28;20025;-50
2020/12/22 08:22:44;;;;;;;7.18;5.03;;;11.90;99.90;;;;;;5033981;28;20025;-49
2020/12/22 08:25:11;;;;;;;5.93;4.90;;;11.90;99.90;;;;;;5033262;28;20029;-49
2020/12/22 08:27:37;;;;;;;6.53;5.75;;;11.90;99.90;;;;;;5033914;28;20460;-51
2020/12/22 08:30:18;;;;;;;7.95;6.15;;;11.90;99.90;;;;;;5033452;28;20105;-52
2020/12/22 08:32:44;;;;;;;;;;;12.00;99.90;;;;;;5034133;28;20240;-53
2020/12/22 08:35:10;;;;;;;8.15;5.72;;;12.00;99.90;;;;;;5033649;28;19909;-52
2020/12/22 08:37:36;;;;;;;10.02;7.68;;;12.00;99.90;;;;;;5041560;28;20382;-45
2020/12/22 08:40:03;;;;;;;10.45;7.68;;;12.00;99.90;;;;;;5036749;28;20437;-44
2020/12/22 08:42:30;;;;;;;10.52;7.47;;;12.00;99.90;;;;;;5033911;28;20029;-46
2020/12/22 08:44:57;;;;;;;10.73;7.55;;;12.00;99.90;;;;;;5031832;28;20024;-48
2020/12/22 08:47:23;;;;;;;12.63;8.02;;;12.10;99.90;;;;;;5032397;28;20025;-45
2020/12/22 08:49:50;;;;;;;11.35;8.57;;;12.10;99.90;;;;;;5032192;28;20451;-47
2020/12/22 08:52:18;;;;;;;10.93;8.75;;;12.20;99.90;;;;;;5030845;28;20051;-48
2020/12/22 08:54:46;;;;;;;12.77;9.48;;;12.20;99.90;;;;;;5032016;28;20025;-45
2020/12/22 08:57:13;;;;;;;16.70;10.43;;;12.20;99.90;;;;;;5037855;28;20025;-47
2020/12/22 08:59:39;;;;;;;14.30;9.93;;;12.20;99.90;;;;;;5015909;28;20029;-50
2020/12/22 09:02:23;;;;;;;12.18;10.05;;;12.20;99.90;;;;;;5031906;28;20025;-48
2020/12/22 09:04:49;;;;;;;12.70;9.60;;;12.20;99.90;;;;;;5030433;28;20076;-48
2020/12/22 09:07:14;;;;;;;13.90;9.23;;;12.20;99.90;;;;;;5032163;28;20277;-46
2020/12/22 09:09:40;;;;;;;14.50;9.27;;;12.20;99.90;;;;;;5031930;28;20094;-49
2020/12/22 09:12:10;;;;;;;11.18;8.38;;;12.20;99.90;;;;;;5031774;28;20467;-48
2020/12/22 09:14:44;;;;;;;10.88;8.65;;;12.20;99.90;;;;;;5030677;28;20516;-46
2020/12/22 09:17:11;;;;;;;11.90;8.18;;;12.30;99.90;;;;;;5029072;28;20113;-46
2020/12/22 09:19:47;;;;;;;11.15;6.95;;;12.40;99.90;;;;;;5030617;28;20033;-48
2020/12/22 09:22:15;;;;;;;9.35;6.97;;;12.40;99.90;;;;;;5031336;28;20080;-47
2020/12/22 09:24:42;;;;;;;11.07;6.85;;;12.50;99.90;;;;;;5030626;28;20076;-46
2020/12/22 09:27:12;;;;;;;7.07;5.95;;;12.60;99.90;;;;;;5031035;28;20022;-46
2020/12/22 09:29:39;;;;;;;6.95;5.05;;;12.70;99.90;;;;;;5032667;28;20044;-48
2020/12/22 09:32:07;;;;;;;5.55;4.75;;;12.70;99.90;;;;;;5031360;28;20091;-47
2020/12/22 09:34:33;;;;;;;5.32;4.13;;;12.70;99.90;;;;;;5031555;28;20028;-49
2020/12/22 09:37:01;;;;;;;5.43;4.13;;;12.80;99.90;;;;;;5032186;28;20030;-49
2020/12/22 09:39:28;;;;;;;4.35;3.72;;;12.80;99.90;;;;;;5032257;28;20559;-48
2020/12/22 09:41:54;;;;;;;4.97;3.38;;;12.90;99.90;;;;;;5030905;28;20039;-44
2020/12/22 09:44:21;;;;;;;3.10;2.80;;;13.00;99.90;;;;;;5032301;28;20105;-49
2020/12/22 09:46:54;;;;;;;3.35;2.33;;;13.00;99.90;;;;;;5030942;28;20021;-44
2020/12/22 09:49:21;;;;;;;4.45;3.17;;;13.10;99.90;;;;;;5031884;28;20389;-50
2020/12/22 09:51:47;;;;;;;4.22;2.90;;;13.10;99.90;;;;;;5031653;28;20059;-48
2020/12/22 09:54:13;;;;;;;5.32;2.20;;;13.10;99.90;;;;;;5031621;28;20029;-45
2020/12/22 09:56:39;;;;;;;3.58;2.10;;;13.10;99.90;;;;;;5030798;28;20086;-45
2020/12/22 09:59:05;;;;;;;3.03;1.98;;;13.10;99.90;;;;;;5031891;28;20033;-44
2020/12/22 10:01:30;;;;;;;4.20;1.42;;;13.20;99.90;;;;;;5031664;28;20026;-44
2020/12/22 10:03:56;;;;;;;3.42;1.48;;;13.30;99.90;;;;;;5031648;28;20103;-46
2020/12/22 10:06:23;;;;;;;1.42;1.30;;;13.30;99.90;;;;;;5031148;28;20022;-44
2020/12/22 10:08:50;;;;;;;2.53;1.60;;;13.40;99.90;;;;;;5031165;28;20040;-45
2020/12/22 10:11:19;;;;;;;3.53;1.40;;;13.50;99.90;;;;;;5030849;28;20071;-47
2020/12/22 10:13:46;;;;;;;1.50;1.40;;;13.60;99.90;;;;;;5031164;28;20080;-44
2020/12/22 10:16:14;;;;;;;2.03;1.50;;;13.70;99.90;;;;;;5030793;28;20104;-46
2020/12/22 10:18:40;;;;;;;1.52;1.20;;;13.60;99.90;;;;;;5029207;28;20085;-44
2020/12/22 10:21:08;;;;;;;1.20;1.10;;;13.60;99.90;;;;;;5030317;28;20025;-46
2020/12/22 10:23:35;;;;;;;3.30;1.52;;;13.70;99.90;;;;;;5030433;28;20032;-49
2020/12/22 10:26:03;;;;;;;5.72;1.45;;;13.70;99.90;;;;;;5028277;28;20418;-48
2020/12/22 10:28:30;;;;;;;3.97;1.45;;;13.70;99.90;;;;;;5028033;28;20049;-48
2020/12/22 10:30:56;;;;;;;1.48;1.17;;;13.70;99.90;;;;;;5045775;28;20685;-45
2020/12/22 10:33:21;;;;;;;2.60;1.17;;;13.80;99.90;;;;;;5049367;28;20112;-46
2020/12/22 10:35:47;;;;;;;2.72;1.10;;;13.80;99.90;;;;;;5033077;28;20486;-47
2020/12/22 10:38:13;;;;;;;3.13;1.00;;;13.90;99.90;;;;;;5029804;28;20053;-47
2020/12/22 10:40:39;;;;;;;2.25;1.05;;;14.00;99.90;;;;;;5028417;28;20359;-54
2020/12/22 10:43:05;;;;;;;5.18;1.10;;;14.10;99.90;;;;;;5029933;28;20036;-45
2020/12/22 10:45:31;;;;;;;1.50;0.98;;;14.10;99.90;;;;;;5028935;28;20100;-46
2020/12/22 10:47:57;;;;;;;3.60;0.98;;;14.00;99.90;;;;;;5029770;28;20025;-48
2020/12/22 10:50:23;;;;;;;4.47;1.48;;;14.00;99.90;;;;;;5029264;28;20509;-48
2020/12/22 10:52:48;;;;;;;2.40;0.90;;;14.00;99.90;;;;;;5028278;28;20079;-44
2020/12/22 10:55:14;;;;;;;1.17;0.80;;;13.90;99.90;;;;;;5040157;28;20112;-46
2020/12/22 10:57:39;;;;;;;2.42;1.17;;;14.00;99.90;;;;;;5049107;28;20267;-44
2020/12/22 11:00:06;;;;;;;3.17;1.10;;;14.10;99.90;;;;;;5049389;28;20194;-45
2020/12/22 11:02:33;;;;;;;2.92;1.42;;;14.10;99.90;;;;;;5049134;28;20021;-47
2020/12/22 11:05:02;;;;;;;4.18;1.10;;;14.10;99.90;;;;;;5041358;28;20037;-48
2020/12/22 11:07:42;;;;;;;4.55;1.17;;;14.10;99.90;;;;;;5038133;28;20025;-48
2020/12/22 11:10:08;;;;;;;2.42;1.20;;;14.00;99.90;;;;;;5040127;28;20510;-45
2020/12/22 11:12:34;;;;;;;2.78;1.23;;;14.00;99.90;;;;;;5044363;28;20050;-47
2020/12/22 11:14:59;;;;;;;1.90;1.08;;;14.00;99.90;;;;;;5047264;28;20103;-45
2020/12/22 11:17:30;;;;;;;3.80;1.23;;;14.00;99.90;;;;;;5036669;28;20078;-47
2020/12/22 11:19:56;;;;;;;5.38;1.00;;;14.00;99.90;;;;;;5041032;28;20059;-44
2020/12/22 11:22:21;;;;;;;2.03;1.25;;;14.10;99.90;;;;;;5038036;28;20022;-47
2020/12/22 11:24:47;;;;;;;2.08;1.15;;;14.20;99.90;;;;;;5038035;28;20013;-47
2020/12/22 11:27:12;;;;;;;6.57;1.45;;;14.20;99.90;;;;;;5038206;28;20029;-45
2020/12/22 11:29:38;;;;;;;2.17;1.33;;;14.30;99.90;;;;;;5039158;28;20109;-48
2020/12/22 11:32:04;;;;;;;2.03;1.00;;;14.40;99.90;;;;;;5039733;28;20033;-47
2020/12/22 11:34:29;;;;;;;3.95;1.73;;;14.50;99.90;;;;;;5039732;28;20017;-46
2020/12/22 11:36:55;;;;;;;2.83;1.60;;;14.30;99.90;;;;;;5039081;28;20022;-46
2020/12/22 11:39:23;;;;;;;2.65;1.42;;;14.30;99.90;;;;;;5040037;28;20039;-45
2020/12/22 11:41:49;;;;;;;3.47;1.42;;;14.20;99.90;;;;;;5037137;28;20136;-44
2020/12/22 11:44:15;;;;;;;3.15;1.40;;;14.10;99.90;;;;;;5037445;28;20100;-46
2020/12/22 11:46:45;;;;;;;5.78;1.65;;;14.00;99.90;;;;;;5038668;28;20108;-44
2020/12/22 11:49:12;;;;;;;2.10;1.70;;;14.10;99.90;;;;;;5037416;28;20471;-44
2020/12/22 11:51:39;;;;;;;3.63;1.50;;;14.10;99.90;;;;;;5039871;28;20025;-44
2020/12/22 11:54:05;;;;;;;4.25;1.52;;;14.20;99.90;;;;;;5038937;28;20394;-47
2020/12/22 11:56:31;;;;;;;3.13;1.65;;;14.30;99.90;;;;;;5027748;28;20639;-44
2020/12/22 11:58:57;;;;;;;4.80;1.30;;;14.40;99.90;;;;;;5028601;28;20069;-44
2020/12/22 12:01:29;;;;;;;3.95;1.40;;;14.40;99.90;;;;;;5028663;28;20104;-45
2020/12/22 12:03:55;;;;;;;1.20;1.00;;;14.30;99.90;;;;;;5028275;28;20029;-48
2020/12/22 12:06:23;;;;;;;2.15;1.05;;;14.40;99.90;;;;;;5023632;28;20029;-45
2020/12/22 12:08:50;;;;;;;1.83;1.05;;;14.50;99.90;;;;;;5040688;28;20486;-47
2020/12/22 12:11:16;;;;;;;1.10;0.80;;;14.50;99.90;;;;;;5042015;28;20025;-45
2020/12/22 12:13:42;;;;;;;2.60;1.17;;;14.50;99.90;;;;;;5032577;28;20021;-47
2020/12/22 12:16:08;;;;;;;1.40;1.27;;;14.50;99.90;;;;;;5027924;28;20027;-43
2020/12/22 12:18:34;;;;;;;4.22;1.00;;;14.40;99.90;;;;;;5036413;28;20421;-45
2020/12/22 12:21:02;;;;;;;2.17;1.15;;;14.30;99.90;;;;;;5045601;28;20108;-47
2020/12/22 12:23:28;;;;;;;2.47;1.00;;;14.20;99.90;;;;;;5046425;28;20025;-46
2020/12/22 12:25:54;;;;;;;1.88;1.00;;;14.30;99.90;;;;;;5045790;28;20063;-47
2020/12/22 12:28:21;;;;;;;1.33;1.23;;;14.20;99.90;;;;;;5047971;28;20068;-46
2020/12/22 12:30:47;;;;;;;3.50;1.13;;;14.10;99.90;;;;;;5047571;28;20037;-45
2020/12/22 12:33:14;;;;;;;1.45;1.00;;;14.10;99.90;;;;;;5047998;28;20475;-47
2020/12/22 12:35:39;;;;;;;2.08;1.10;;;14.10;99.90;;;;;;5046518;28;20486;-45
2020/12/22 12:38:04;;;;;;;2.08;0.80;;;14.00;99.90;;;;;;5047839;28;20044;-44
2020/12/22 12:40:31;;;;;;;2.42;1.10;;;13.90;99.90;;;;;;5047751;28;20482;-44
2020/12/22 12:42:57;;;;;;;1.23;1.10;;;13.80;99.90;;;;;;5047287;28;20029;-45
2020/12/22 12:45:23;;;;;;;3.20;1.15;;;13.70;99.90;;;;;;5040494;28;20018;-47
2020/12/22 12:47:49;;;;;;;3.45;1.40;;;13.70;99.90;;;;;;5030019;28;20037;-46
2020/12/22 12:50:15;;;;;;;1.83;1.38;;;13.70;99.90;;;;;;5025523;28;20033;-47